Terminal Aerodrome Forecast
Issued by NWS

Home | Current Version | Previous Version | Text Only | Print | Product List | Glossary On
Versions: 1 2 3 4 5 6 7 8 9 10 11 12 13
000
FTUS43 KICT 221100
TAFSLN
TAF
KSLN 221138Z 2212/2312 17010KT P6SM VCTS BKN110CB
      TEMPO 2212/2213 6SM TSRA SCT060 BKN110CB
     FM221400 18010KT P6SM SCT070 BKN250=

USA.gov is the U.S. government's official web portal to all federal, state and local government web resources and services.